sensor_id;sensor_type;location;lat;lon;timestamp;temperature;humidity
6954;DHT22;3516;47.980;8.808;2024-02-26T05:13:18;5.10;99.90
6954;DHT22;3516;47.980;8.808;2024-02-26T05:15:44;5.20;99.90
6954;DHT22;3516;47.980;8.808;2024-02-26T05:18:14;5.20;99.90
6954;DHT22;3516;47.980;8.808;2024-02-26T05:20:41;5.20;99.90
6954;DHT22;3516;47.980;8.808;2024-02-26T05:23:07;5.20;99.90
6954;DHT22;3516;47.980;8.808;2024-02-26T05:25:34;5.20;99.90
6954;DHT22;3516;47.980;8.808;2024-02-26T05:28:00;5.20;99.90
6954;DHT22;3516;47.980;8.808;2024-02-26T05:30:28;5.20;99.90
6954;DHT22;3516;47.980;8.808;2024-02-26T05:32:55;5.20;99.90
6954;DHT22;3516;47.980;8.808;2024-02-26T05:35:21;5.20;99.90
6954;DHT22;3516;47.980;8.808;2024-02-26T05:37:48;5.20;99.90
6954;DHT22;3516;47.980;8.808;2024-02-26T05:40:14;5.20;99.90
6954;DHT22;3516;47.980;8.808;2024-02-26T05:42:41;5.10;99.90
6954;DHT22;3516;47.980;8.808;2024-02-26T05:45:10;5.10;99.90
6954;DHT22;3516;47.980;8.808;2024-02-26T05:47:38;5.10;99.90
6954;DHT22;3516;47.980;8.808;2024-02-26T05:50:08;5.00;99.90
6954;DHT22;3516;47.980;8.808;2024-02-26T05:52:36;4.90;99.90
6954;DHT22;3516;47.980;8.808;2024-02-26T05:55:03;5.00;99.90
6954;DHT22;3516;47.980;8.808;2024-02-26T05:57:29;4.90;99.90
6954;DHT22;3516;47.980;8.808;2024-02-26T05:59:56;4.80;99.90
6954;DHT22;3516;47.980;8.808;2024-02-26T06:02:26;4.80;99.90
6954;DHT22;3516;47.980;8.808;2024-02-26T06:04:53;5.00;99.90
6954;DHT22;3516;47.980;8.808;2024-02-26T06:07:20;4.70;99.90
6954;DHT22;3516;47.980;8.808;2024-02-26T06:09:46;4.50;99.90
6954;DHT22;3516;47.980;8.808;2024-02-26T06:12:13;4.80;99.90
6954;DHT22;3516;47.980;8.808;2024-02-26T06:14:41;5.00;99.90
6954;DHT22;3516;47.980;8.808;2024-02-26T06:17:07;5.10;99.90
6954;DHT22;3516;47.980;8.808;2024-02-26T06:19:34;5.10;99.90
6954;DHT22;3516;47.980;8.808;2024-02-26T06:22:02;5.20;99.90
6954;DHT22;3516;47.980;8.808;2024-02-26T06:24:29;5.30;99.90
6954;DHT22;3516;47.980;8.808;2024-02-26T06:26:55;5.20;99.90
6954;DHT22;3516;47.980;8.808;2024-02-26T06:29:22;5.10;99.90
6954;DHT22;3516;47.980;8.808;2024-02-26T06:31:48;4.90;99.90
6954;DHT22;3516;47.980;8.808;2024-02-26T06:34:16;4.90;99.90
6954;DHT22;3516;47.980;8.808;2024-02-26T06:36:42;5.20;99.90
6954;DHT22;3516;47.980;8.808;2024-02-26T06:39:10;5.40;99.90
6954;DHT22;3516;47.980;8.808;2024-02-26T06:41:38;5.50;99.90
6954;DHT22;3516;47.980;8.808;2024-02-26T06:44:04;5.60;99.90
6954;DHT22;3516;47.980;8.808;2024-02-26T06:46:31;5.70;99.90
6954;DHT22;3516;47.980;8.808;2024-02-26T06:48:57;5.70;99.90
6954;DHT22;3516;47.980;8.808;2024-02-26T06:51:24;5.80;99.90
6954;DHT22;3516;47.980;8.808;2024-02-26T06:53:51;5.80;99.90
6954;DHT22;3516;47.980;8.808;2024-02-26T06:56:19;5.80;99.90
6954;DHT22;3516;47.980;8.808;2024-02-26T06:58:45;5.90;99.90
6954;DHT22;3516;47.980;8.808;2024-02-26T07:01:12;6.00;99.90
6954;DHT22;3516;47.980;8.808;2024-02-26T07:03:40;6.10;99.90
6954;DHT22;3516;47.980;8.808;2024-02-26T07:06:06;6.10;99.90
6954;DHT22;3516;47.980;8.808;2024-02-26T07:08:33;6.10;99.90
6954;DHT22;3516;47.980;8.808;2024-02-26T07:10:59;6.10;99.90
6954;DHT22;3516;47.980;8.808;2024-02-26T07:13:27;6.10;99.90
6954;DHT22;3516;47.980;8.808;2024-02-26T07:15:54;6.20;99.90
6954;DHT22;3516;47.980;8.808;2024-02-26T07:18:21;6.20;99.90
6954;DHT22;3516;47.980;8.808;2024-02-26T07:20:48;6.20;99.90
6954;DHT22;3516;47.980;8.808;2024-02-26T07:23:15;6.20;99.90
6954;DHT22;3516;47.980;8.808;2024-02-26T07:25:43;6.20;99.90
6954;DHT22;3516;47.980;8.808;2024-02-26T07:28:09;6.30;99.90
6954;DHT22;3516;47.980;8.808;2024-02-26T07:30:38;6.10;99.90
6954;DHT22;3516;47.980;8.808;2024-02-26T07:33:04;6.10;99.90
6954;DHT22;3516;47.980;8.808;2024-02-26T07:35:32;6.30;99.90
6954;DHT22;3516;47.980;8.808;2024-02-26T07:38:01;6.10;99.90
6954;DHT22;3516;47.980;8.808;2024-02-26T07:40:28;5.90;99.90
6954;DHT22;3516;47.980;8.808;2024-02-26T07:42:55;6.20;99.90
6954;DHT22;3516;47.980;8.808;2024-02-26T07:45:21;6.20;99.90
6954;DHT22;3516;47.980;8.808;2024-02-26T07:47:49;6.10;99.90
6954;DHT22;3516;47.980;8.808;2024-02-26T07:50:17;6.30;99.90
6954;DHT22;3516;47.980;8.808;2024-02-26T07:52:45;6.40;99.90
6954;DHT22;3516;47.980;8.808;2024-02-26T07:55:11;6.60;99.90
6954;DHT22;3516;47.980;8.808;2024-02-26T07:57:41;6.70;99.90
6954;DHT22;3516;47.980;8.808;2024-02-26T08:00:08;6.70;99.90
6954;DHT22;3516;47.980;8.808;2024-02-26T08:02:35;6.70;99.90
6954;DHT22;3516;47.980;8.808;2024-02-26T08:05:03;6.80;99.90
6954;DHT22;3516;47.980;8.808;2024-02-26T08:07:30;6.70;99.90
6954;DHT22;3516;47.980;8.808;2024-02-26T08:09:56;6.70;99.90
6954;DHT22;3516;47.980;8.808;2024-02-26T08:12:23;6.70;99.90
6954;DHT22;3516;47.980;8.808;2024-02-26T08:14:49;6.90;99.90
6954;DHT22;3516;47.980;8.808;2024-02-26T08:17:16;7.00;99.90
6954;DHT22;3516;47.980;8.808;2024-02-26T08:19:43;7.00;99.90
6954;DHT22;3516;47.980;8.808;2024-02-26T08:22:11;7.20;99.90
6954;DHT22;3516;47.980;8.808;2024-02-26T08:24:41;7.40;99.90
6954;DHT22;3516;47.980;8.808;2024-02-26T08:27:07;7.50;99.90
6954;DHT22;3516;47.980;8.808;2024-02-26T08:29:34;7.40;99.90
6954;DHT22;3516;47.980;8.808;2024-02-26T08:32:01;7.60;99.90
6954;DHT22;3516;47.980;8.808;2024-02-26T08:34:27;7.80;99.90
6954;DHT22;3516;47.980;8.808;2024-02-26T08:36:54;7.90;99.90
6954;DHT22;3516;47.980;8.808;2024-02-26T08:39:22;7.90;99.90
6954;DHT22;3516;47.980;8.808;2024-02-26T08:41:48;7.80;99.90
6954;DHT22;3516;47.980;8.808;2024-02-26T08:44:15;7.90;99.90
6954;DHT22;3516;47.980;8.808;2024-02-26T08:46:41;8.20;99.90
6954;DHT22;3516;47.980;8.808;2024-02-26T08:49:08;8.30;99.90
6954;DHT22;3516;47.980;8.808;2024-02-26T08:51:35;8.60;99.90
6954;DHT22;3516;47.980;8.808;2024-02-26T08:54:01;9.20;99.90
6954;DHT22;3516;47.980;8.808;2024-02-26T08:56:29;9.80;99.90
6954;DHT22;3516;47.980;8.808;2024-02-26T08:58:55;9.90;99.90
6954;DHT22;3516;47.980;8.808;2024-02-26T09:01:24;9.80;99.90
6954;DHT22;3516;47.980;8.808;2024-02-26T09:03:51;10.10;99.90
6954;DHT22;3516;47.980;8.808;2024-02-26T09:06:17;10.40;99.90
6954;DHT22;3516;47.980;8.808;2024-02-26T09:08:44;10.80;99.90
6954;DHT22;3516;47.980;8.808;2024-02-26T09:11:10;11.00;99.90
6954;DHT22;3516;47.980;8.808;2024-02-26T09:13:38;11.20;99.90
6954;DHT22;3516;47.980;8.808;2024-02-26T09:16:05;11.30;99.90
6954;DHT22;3516;47.980;8.808;2024-02-26T09:18:31;11.20;99.90
6954;DHT22;3516;47.980;8.808;2024-02-26T09:20:58;10.90;99.90
6954;DHT22;3516;47.980;8.808;2024-02-26T09:23:24;10.80;99.90
6954;DHT22;3516;47.980;8.808;2024-02-26T09:25:51;10.90;99.90
6954;DHT22;3516;47.980;8.808;2024-02-26T09:28:17;10.70;99.90
6954;DHT22;3516;47.980;8.808;2024-02-26T09:30:45;10.90;99.90
6954;DHT22;3516;47.980;8.808;2024-02-26T09:33:13;11.00;99.90
6954;DHT22;3516;47.980;8.808;2024-02-26T09:35:40;11.30;99.90
6954;DHT22;3516;47.980;8.808;2024-02-26T09:38:06;11.40;99.90
6954;DHT22;3516;47.980;8.808;2024-02-26T09:40:33;11.90;99.90
6954;DHT22;3516;47.980;8.808;2024-02-26T09:43:00;11.80;99.90
6954;DHT22;3516;47.980;8.808;2024-02-26T09:45:26;12.30;99.90
6954;DHT22;3516;47.980;8.808;2024-02-26T09:47:55;12.30;99.90
6954;DHT22;3516;47.980;8.808;2024-02-26T09:50:22;12.40;99.90
6954;DHT22;3516;47.980;8.808;2024-02-26T09:52:49;12.60;99.90
6954;DHT22;3516;47.980;8.808;2024-02-26T09:55:16;12.40;99.90
6954;DHT22;3516;47.980;8.808;2024-02-26T09:57:44;12.30;99.90
6954;DHT22;3516;47.980;8.808;2024-02-26T10:00:11;12.10;99.90
6954;DHT22;3516;47.980;8.808;2024-02-26T10:02:40;12.20;99.90
6954;DHT22;3516;47.980;8.808;2024-02-26T10:05:10;12.40;99.90
6954;DHT22;3516;47.980;8.808;2024-02-26T10:07:38;12.70;99.90
6954;DHT22;3516;47.980;8.808;2024-02-26T10:10:05;12.70;99.90
6954;DHT22;3516;47.980;8.808;2024-02-26T10:12:32;12.80;99.90
6954;DHT22;3516;47.980;8.808;2024-02-26T10:14:58;12.60;99.90
6954;DHT22;3516;47.980;8.808;2024-02-26T10:17:26;12.60;99.90
6954;DHT22;3516;47.980;8.808;2024-02-26T10:19:53;13.00;99.90
6954;DHT22;3516;47.980;8.808;2024-02-26T10:22:23;13.10;99.90
6954;DHT22;3516;47.980;8.808;2024-02-26T10:24:49;13.20;99.90
6954;DHT22;3516;47.980;8.808;2024-02-26T10:27:16;13.20;99.90
6954;DHT22;3516;47.980;8.808;2024-02-26T10:29:42;12.90;99.90
6954;DHT22;3516;47.980;8.808;2024-02-26T10:32:09;13.00;99.90
6954;DHT22;3516;47.980;8.808;2024-02-26T10:34:38;12.60;99.90
6954;DHT22;3516;47.980;8.808;2024-02-26T10:37:06;12.50;99.90
6954;DHT22;3516;47.980;8.808;2024-02-26T10:39:35;12.20;99.90
6954;DHT22;3516;47.980;8.808;2024-02-26T10:42:02;12.00;99.90
6954;DHT22;3516;47.980;8.808;2024-02-26T10:44:34;12.20;99.90
6954;DHT22;3516;47.980;8.808;2024-02-26T10:47:01;12.00;99.90
6954;DHT22;3516;47.980;8.808;2024-02-26T10:49:28;11.80;99.90
6954;DHT22;3516;47.980;8.808;2024-02-26T10:51:56;12.10;99.90
6954;DHT22;3516;47.980;8.808;2024-02-26T10:54:23;12.00;99.90
6954;DHT22;3516;47.980;8.808;2024-02-26T10:56:51;11.90;99.90
6954;DHT22;3516;47.980;8.808;2024-02-26T10:59:18;11.90;99.90
6954;DHT22;3516;47.980;8.808;2024-02-26T11:01:46;12.10;99.90
6954;DHT22;3516;47.980;8.808;2024-02-26T11:04:15;12.20;98.90
6954;DHT22;3516;47.980;8.808;2024-02-26T11:06:42;12.30;97.60
6954;DHT22;3516;47.980;8.808;2024-02-26T11:09:09;12.10;98.10
6954;DHT22;3516;47.980;8.808;2024-02-26T11:11:38;12.50;99.90
6954;DHT22;3516;47.980;8.808;2024-02-26T11:14:06;12.60;97.90
6954;DHT22;3516;47.980;8.808;2024-02-26T11:16:34;12.50;95.50
6954;DHT22;3516;47.980;8.808;2024-02-26T11:19:02;12.60;97.10
6954;DHT22;3516;47.980;8.808;2024-02-26T11:21:28;12.50;94.90
6954;DHT22;3516;47.980;8.808;2024-02-26T11:24:04;12.50;94.00
6954;DHT22;3516;47.980;8.808;2024-02-26T11:26:30;12.50;95.40
6954;DHT22;3516;47.980;8.808;2024-02-26T11:28:57;12.50;93.30
6954;DHT22;3516;47.980;8.808;2024-02-26T11:31:25;12.50;93.70
6954;DHT22;3516;47.980;8.808;2024-02-26T11:33:53;12.80;94.40
6954;DHT22;3516;47.980;8.808;2024-02-26T11:36:19;12.80;92.80
6954;DHT22;3516;47.980;8.808;2024-02-26T11:38:46;12.60;88.40
6954;DHT22;3516;47.980;8.808;2024-02-26T11:41:16;12.50;84.10
6954;DHT22;3516;47.980;8.808;2024-02-26T11:43:49;12.50;85.90
6954;DHT22;3516;47.980;8.808;2024-02-26T11:46:25;12.40;79.50
6954;DHT22;3516;47.980;8.808;2024-02-26T11:48:53;12.20;75.60
6954;DHT22;3516;47.980;8.808;2024-02-26T11:51:24;12.20;75.80
6954;DHT22;3516;47.980;8.808;2024-02-26T11:53:51;12.10;73.10
6954;DHT22;3516;47.980;8.808;2024-02-26T11:56:21;12.10;72.00
6954;DHT22;3516;47.980;8.808;2024-02-26T11:58:48;12.30;67.70
6954;DHT22;3516;47.980;8.808;2024-02-26T12:04:06;12.00;64.10
6954;DHT22;3516;47.980;8.808;2024-02-26T12:06:39;11.90;62.90
6954;DHT22;3516;47.980;8.808;2024-02-26T12:09:07;12.00;64.80
6954;DHT22;3516;47.980;8.808;2024-02-26T12:11:34;12.10;64.60
6954;DHT22;3516;47.980;8.808;2024-02-26T12:14:03;11.90;64.50
6954;DHT22;3516;47.980;8.808;2024-02-26T12:16:36;11.70;64.50
6954;DHT22;3516;47.980;8.808;2024-02-26T12:19:04;11.70;67.00
6954;DHT22;3516;47.980;8.808;2024-02-26T12:21:32;11.70;70.90
6954;DHT22;3516;47.980;8.808;2024-02-26T12:24:06;11.70;75.20
6954;DHT22;3516;47.980;8.808;2024-02-26T12:26:33;11.70;76.90
6954;DHT22;3516;47.980;8.808;2024-02-26T12:28:59;11.60;79.10
6954;DHT22;3516;47.980;8.808;2024-02-26T12:31:26;11.60;80.70
6954;DHT22;3516;47.980;8.808;2024-02-26T12:33:53;11.10;84.70
6954;DHT22;3516;47.980;8.808;2024-02-26T12:36:20;11.30;93.20
6954;DHT22;3516;47.980;8.808;2024-02-26T12:38:49;11.20;92.30
6954;DHT22;3516;47.980;8.808;2024-02-26T12:41:16;11.40;92.50
6954;DHT22;3516;47.980;8.808;2024-02-26T12:43:43;11.50;91.80
6954;DHT22;3516;47.980;8.808;2024-02-26T12:46:09;11.60;91.90
6954;DHT22;3516;47.980;8.808;2024-02-26T12:48:38;11.80;93.90
6954;DHT22;3516;47.980;8.808;2024-02-26T12:51:04;11.80;91.40
6954;DHT22;3516;47.980;8.808;2024-02-26T12:53:31;11.90;92.40
6954;DHT22;3516;47.980;8.808;2024-02-26T12:55:59;12.10;92.80
6954;DHT22;3516;47.980;8.808;2024-02-26T12:58:26;12.10;90.40
6954;DHT22;3516;47.980;8.808;2024-02-26T13:00:53;12.30;90.80
6954;DHT22;3516;47.980;8.808;2024-02-26T13:03:19;12.30;91.50
6954;DHT22;3516;47.980;8.808;2024-02-26T13:05:46;12.20;87.30
6954;DHT22;3516;47.980;8.808;2024-02-26T13:08:16;12.00;88.50
6954;DHT22;3516;47.980;8.808;2024-02-26T13:10:43;12.20;91.20
6954;DHT22;3516;47.980;8.808;2024-02-26T13:13:14;12.10;91.50
6954;DHT22;3516;47.980;8.808;2024-02-26T13:15:40;12.00;92.40
6954;DHT22;3516;47.980;8.808;2024-02-26T13:18:10;12.00;91.00
6954;DHT22;3516;47.980;8.808;2024-02-26T13:20:37;11.70;91.00
6954;DHT22;3516;47.980;8.808;2024-02-26T13:23:06;11.70;93.30
6954;DHT22;3516;47.980;8.808;2024-02-26T13:25:32;11.80;93.90
6954;DHT22;3516;47.980;8.808;2024-02-26T13:28:06;11.80;94.60
6954;DHT22;3516;47.980;8.808;2024-02-26T13:30:34;11.60;94.50
6954;DHT22;3516;47.980;8.808;2024-02-26T13:33:06;11.90;97.80
6954;DHT22;3516;47.980;8.808;2024-02-26T13:35:33;12.20;96.70
6954;DHT22;3516;47.980;8.808;2024-02-26T13:38:00;11.90;93.00
6954;DHT22;3516;47.980;8.808;2024-02-26T13:40:27;11.70;91.70
6954;DHT22;3516;47.980;8.808;2024-02-26T13:42:54;11.50;90.00
6954;DHT22;3516;47.980;8.808;2024-02-26T13:45:20;11.60;92.70
6954;DHT22;3516;47.980;8.808;2024-02-26T13:47:48;11.60;89.80
6954;DHT22;3516;47.980;8.808;2024-02-26T13:50:15;11.30;89.80
6954;DHT22;3516;47.980;8.808;2024-02-26T13:52:43;11.50;91.80
6954;DHT22;3516;47.980;8.808;2024-02-26T13:55:10;11.40;85.80
6954;DHT22;3516;47.980;8.808;2024-02-26T13:57:36;11.40;84.50
6954;DHT22;3516;47.980;8.808;2024-02-26T14:00:04;11.20;81.40
6954;DHT22;3516;47.980;8.808;2024-02-26T14:02:31;11.50;82.90
6954;DHT22;3516;47.980;8.808;2024-02-26T14:05:01;11.70;78.80
6954;DHT22;3516;47.980;8.808;2024-02-26T14:07:29;11.80;81.80
6954;DHT22;3516;47.980;8.808;2024-02-26T14:09:57;11.60;77.60
6954;DHT22;3516;47.980;8.808;2024-02-26T14:12:24;11.70;77.40
6954;DHT22;3516;47.980;8.808;2024-02-26T14:14:51;12.00;76.40
6954;DHT22;3516;47.980;8.808;2024-02-26T14:17:19;12.40;74.30
6954;DHT22;3516;47.980;8.808;2024-02-26T14:19:45;12.30;70.20
6954;DHT22;3516;47.980;8.808;2024-02-26T14:22:14;12.10;67.90
6954;DHT22;3516;47.980;8.808;2024-02-26T14:24:42;11.90;69.80
6954;DHT22;3516;47.980;8.808;2024-02-26T14:27:08;11.50;74.00
6954;DHT22;3516;47.980;8.808;2024-02-26T14:29:36;11.50;77.80
6954;DHT22;3516;47.980;8.808;2024-02-26T14:32:03;11.60;79.60
6954;DHT22;3516;47.980;8.808;2024-02-26T14:34:29;11.70;82.30
6954;DHT22;3516;47.980;8.808;2024-02-26T14:36:56;11.80;82.10
6954;DHT22;3516;47.980;8.808;2024-02-26T14:39:24;12.00;83.90
6954;DHT22;3516;47.980;8.808;2024-02-26T14:41:50;12.00;80.00
6954;DHT22;3516;47.980;8.808;2024-02-26T14:44:17;11.80;80.50
6954;DHT22;3516;47.980;8.808;2024-02-26T14:46:43;11.80;81.50
6954;DHT22;3516;47.980;8.808;2024-02-26T14:49:10;11.70;80.60
6954;DHT22;3516;47.980;8.808;2024-02-26T14:51:37;11.70;81.90
6954;DHT22;3516;47.980;8.808;2024-02-26T14:54:04;11.40;83.20
6954;DHT22;3516;47.980;8.808;2024-02-26T14:56:31;11.40;89.60
6954;DHT22;3516;47.980;8.808;2024-02-26T14:58:58;11.30;88.80
6954;DHT22;3516;47.980;8.808;2024-02-26T15:01:25;11.30;90.20
6954;DHT22;3516;47.980;8.808;2024-02-26T15:03:51;11.30;91.10
6954;DHT22;3516;47.980;8.808;2024-02-26T15:06:18;11.60;92.40
6954;DHT22;3516;47.980;8.808;2024-02-26T15:08:44;11.90;91.30
6954;DHT22;3516;47.980;8.808;2024-02-26T15:11:11;11.70;91.30
6954;DHT22;3516;47.980;8.808;2024-02-26T15:13:39;11.90;92.70
6954;DHT22;3516;47.980;8.808;2024-02-26T15:16:06;11.80;91.40
6954;DHT22;3516;47.980;8.808;2024-02-26T15:18:32;11.90;91.80
6954;DHT22;3516;47.980;8.808;2024-02-26T15:20:59;11.90;91.30
6954;DHT22;3516;47.980;8.808;2024-02-26T15:23:25;11.70;92.40
6954;DHT22;3516;47.980;8.808;2024-02-26T15:25:53;11.80;94.20
6954;DHT22;3516;47.980;8.808;2024-02-26T15:28:20;11.60;93.80
6954;DHT22;3516;47.980;8.808;2024-02-26T15:30:47;11.50;95.90
6954;DHT22;3516;47.980;8.808;2024-02-26T15:33:14;11.40;97.60
6954;DHT22;3516;47.980;8.808;2024-02-26T15:35:40;11.30;99.40
6954;DHT22;3516;47.980;8.808;2024-02-26T15:38:10;11.00;99.90
6954;DHT22;3516;47.980;8.808;2024-02-26T15:40:36;11.10;99.90
6954;DHT22;3516;47.980;8.808;2024-02-26T15:43:03;11.10;99.90
6954;DHT22;3516;47.980;8.808;2024-02-26T15:45:30;10.70;99.90
6954;DHT22;3516;47.980;8.808;2024-02-26T15:48:00;10.40;99.90
6954;DHT22;3516;47.980;8.808;2024-02-26T15:50:26;10.60;99.90
6954;DHT22;3516;47.980;8.808;2024-02-26T15:52:53;10.40;99.90
6954;DHT22;3516;47.980;8.808;2024-02-26T15:55:20;10.20;99.90
6954;DHT22;3516;47.980;8.808;2024-02-26T15:57:46;10.40;99.90
6954;DHT22;3516;47.980;8.808;2024-02-26T16:00:13;10.40;99.90
6954;DHT22;3516;47.980;8.808;2024-02-26T16:02:40;10.40;99.90
6954;DHT22;3516;47.980;8.808;2024-02-26T16:05:08;10.60;99.90
6954;DHT22;3516;47.980;8.808;2024-02-26T16:07:38;10.50;99.90
6954;DHT22;3516;47.980;8.808;2024-02-26T16:10:06;10.50;99.90
6954;DHT22;3516;47.980;8.808;2024-02-26T16:12:35;10.60;99.90
6954;DHT22;3516;47.980;8.808;2024-02-26T16:15:02;10.30;99.90
6954;DHT22;3516;47.980;8.808;2024-02-26T16:17:30;10.40;99.90
6954;DHT22;3516;47.980;8.808;2024-02-26T16:19:59;10.40;99.90
6954;DHT22;3516;47.980;8.808;2024-02-26T16:22:27;10.20;99.90
6954;DHT22;3516;47.980;8.808;2024-02-26T16:24:53;10.30;99.90
6954;DHT22;3516;47.980;8.808;2024-02-26T16:27:20;10.30;99.90
6954;DHT22;3516;47.980;8.808;2024-02-26T16:29:46;10.10;99.90
6954;DHT22;3516;47.980;8.808;2024-02-26T16:32:13;10.20;99.90
6954;DHT22;3516;47.980;8.808;2024-02-26T16:34:40;10.20;99.90
6954;DHT22;3516;47.980;8.808;2024-02-26T16:37:08;10.20;99.90
6954;DHT22;3516;47.980;8.808;2024-02-26T16:39:37;10.10;99.90
6954;DHT22;3516;47.980;8.808;2024-02-26T16:42:04;10.10;99.90
6954;DHT22;3516;47.980;8.808;2024-02-26T16:44:32;10.00;99.90
6954;DHT22;3516;47.980;8.808;2024-02-26T16:46:59;10.20;99.90
6954;DHT22;3516;47.980;8.808;2024-02-26T16:49:26;10.30;99.90
6954;DHT22;3516;47.980;8.808;2024-02-26T16:51:52;10.50;99.90
6954;DHT22;3516;47.980;8.808;2024-02-26T16:54:19;10.60;99.90
6954;DHT22;3516;47.980;8.808;2024-02-26T16:56:47;10.30;99.90
6954;DHT22;3516;47.980;8.808;2024-02-26T16:59:13;10.30;99.90
6954;DHT22;3516;47.980;8.808;2024-02-26T17:01:43;10.30;99.90
6954;DHT22;3516;47.980;8.808;2024-02-26T17:04:10;10.20;99.90
6954;DHT22;3516;47.980;8.808;2024-02-26T17:06:36;10.10;99.90
6954;DHT22;3516;47.980;8.808;2024-02-26T17:09:03;10.00;99.90
6954;DHT22;3516;47.980;8.808;2024-02-26T17:11:30;10.20;99.90
6954;DHT22;3516;47.980;8.808;2024-02-26T17:13:59;10.40;99.90
6954;DHT22;3516;47.980;8.808;2024-02-26T17:16:26;10.30;99.90
6954;DHT22;3516;47.980;8.808;2024-02-26T17:18:53;10.20;99.90
6954;DHT22;3516;47.980;8.808;2024-02-26T17:21:19;10.10;99.90
6954;DHT22;3516;47.980;8.808;2024-02-26T17:23:46;9.90;99.90
6954;DHT22;3516;47.980;8.808;2024-02-26T17:26:16;9.90;99.90
6954;DHT22;3516;47.980;8.808;2024-02-26T17:28:43;9.90;99.90
6954;DHT22;3516;47.980;8.808;2024-02-26T17:31:11;9.70;99.90
6954;DHT22;3516;47.980;8.808;2024-02-26T17:33:37;9.40;99.90
6954;DHT22;3516;47.980;8.808;2024-02-26T17:36:04;9.20;99.90
6954;DHT22;3516;47.980;8.808;2024-02-26T17:38:33;9.20;99.90
6954;DHT22;3516;47.980;8.808;2024-02-26T17:41:00;9.20;99.90
6954;DHT22;3516;47.980;8.808;2024-02-26T17:43:26;9.20;99.90
6954;DHT22;3516;47.980;8.808;2024-02-26T17:45:53;9.00;99.90
6954;DHT22;3516;47.980;8.808;2024-02-26T17:48:21;9.20;99.90
6954;DHT22;3516;47.980;8.808;2024-02-26T17:50:47;9.20;99.90
6954;DHT22;3516;47.980;8.808;2024-02-26T17:53:14;9.30;99.90
6954;DHT22;3516;47.980;8.808;2024-02-26T17:55:40;9.30;99.90
6954;DHT22;3516;47.980;8.808;2024-02-26T17:58:09;9.20;99.90
6954;DHT22;3516;47.980;8.808;2024-02-26T18:00:40;9.40;99.90
6954;DHT22;3516;47.980;8.808;2024-02-26T18:03:06;9.50;99.90
6954;DHT22;3516;47.980;8.808;2024-02-26T18:05:34;9.60;99.90
6954;DHT22;3516;47.980;8.808;2024-02-26T18:08:03;9.60;99.90
6954;DHT22;3516;47.980;8.808;2024-02-26T18:10:30;9.60;99.90
6954;DHT22;3516;47.980;8.808;2024-02-26T18:12:57;9.70;99.90
6954;DHT22;3516;47.980;8.808;2024-02-26T18:15:24;9.70;99.90
6954;DHT22;3516;47.980;8.808;2024-02-26T18:17:50;9.80;99.90
6954;DHT22;3516;47.980;8.808;2024-02-26T18:20:17;9.70;99.90
6954;DHT22;3516;47.980;8.808;2024-02-26T18:22:45;9.60;99.90
6954;DHT22;3516;47.980;8.808;2024-02-26T18:25:12;9.50;99.90
6954;DHT22;3516;47.980;8.808;2024-02-26T18:27:42;9.60;99.90
6954;DHT22;3516;47.980;8.808;2024-02-26T18:30:09;9.60;99.90
6954;DHT22;3516;47.980;8.808;2024-02-26T18:32:36;9.60;99.90
6954;DHT22;3516;47.980;8.808;2024-02-26T18:35:03;9.70;99.90
6954;DHT22;3516;47.980;8.808;2024-02-26T18:37:29;9.70;99.90
6954;DHT22;3516;47.980;8.808;2024-02-26T18:39:57;9.70;99.90
6954;DHT22;3516;47.980;8.808;2024-02-26T18:42:24;9.70;99.90
6954;DHT22;3516;47.980;8.808;2024-02-26T18:44:54;9.60;99.90
6954;DHT22;3516;47.980;8.808;2024-02-26T18:47:22;9.40;99.90
6954;DHT22;3516;47.980;8.808;2024-02-26T18:49:48;9.40;99.90
6954;DHT22;3516;47.980;8.808;2024-02-26T18:52:15;9.40;99.90
6954;DHT22;3516;47.980;8.808;2024-02-26T18:54:42;9.40;99.90
6954;DHT22;3516;47.980;8.808;2024-02-26T18:57:10;9.30;99.90
6954;DHT22;3516;47.980;8.808;2024-02-26T18:59:36;9.30;99.90
6954;DHT22;3516;47.980;8.808;2024-02-26T19:02:03;9.30;99.90
6954;DHT22;3516;47.980;8.808;2024-02-26T19:04:30;9.30;99.90
6954;DHT22;3516;47.980;8.808;2024-02-26T19:06:57;9.20;99.90
6954;DHT22;3516;47.980;8.808;2024-02-26T19:09:23;9.20;99.90
6954;DHT22;3516;47.980;8.808;2024-02-26T19:11:50;9.20;99.90
6954;DHT22;3516;47.980;8.808;2024-02-26T19:14:20;9.20;99.90
6954;DHT22;3516;47.980;8.808;2024-02-26T19:16:46;9.10;99.90
6954;DHT22;3516;47.980;8.808;2024-02-26T19:19:13;9.20;99.90
6954;DHT22;3516;47.980;8.808;2024-02-26T19:21:40;9.10;99.90
6954;DHT22;3516;47.980;8.808;2024-02-26T19:24:07;9.10;99.90
6954;DHT22;3516;47.980;8.808;2024-02-26T19:26:35;9.10;99.90
6954;DHT22;3516;47.980;8.808;2024-02-26T19:29:02;9.10;99.90
6954;DHT22;3516;47.980;8.808;2024-02-26T19:31:30;9.10;99.90
6954;DHT22;3516;47.980;8.808;2024-02-26T19:33:56;9.10;99.90
6954;DHT22;3516;47.980;8.808;2024-02-26T19:36:23;9.00;99.90
6954;DHT22;3516;47.980;8.808;2024-02-26T19:38:49;9.10;99.90
6954;DHT22;3516;47.980;8.808;2024-02-26T19:41:16;9.10;99.90
6954;DHT22;3516;47.980;8.808;2024-02-26T19:43:42;9.10;99.90
6954;DHT22;3516;47.980;8.808;2024-02-26T19:46:09;9.00;99.90
6954;DHT22;3516;47.980;8.808;2024-02-26T19:48:39;9.00;99.90
6954;DHT22;3516;47.980;8.808;2024-02-26T19:51:05;9.00;99.90
6954;DHT22;3516;47.980;8.808;2024-02-26T19:53:32;8.90;99.90
6954;DHT22;3516;47.980;8.808;2024-02-26T19:55:58;8.90;99.90
6954;DHT22;3516;47.980;8.808;2024-02-26T19:58:26;8.80;99.90
6954;DHT22;3516;47.980;8.808;2024-02-26T20:00:52;8.80;99.90
6954;DHT22;3516;47.980;8.808;2024-02-26T20:03:19;8.80;99.90
6954;DHT22;3516;47.980;8.808;2024-02-26T20:05:47;8.80;99.90
6954;DHT22;3516;47.980;8.808;2024-02-26T20:08:13;8.70;99.90
6954;DHT22;3516;47.980;8.808;2024-02-26T20:10:40;8.70;99.90
6954;DHT22;3516;47.980;8.808;2024-02-26T20:13:06;8.70;99.90
6954;DHT22;3516;47.980;8.808;2024-02-26T20:15:33;8.70;99.90
6954;DHT22;3516;47.980;8.808;2024-02-26T20:18:00;8.60;99.90
6954;DHT22;3516;47.980;8.808;2024-02-26T20:20:28;8.60;99.90
6954;DHT22;3516;47.980;8.808;2024-02-26T20:22:55;8.60;99.90
6954;DHT22;3516;47.980;8.808;2024-02-26T20:25:22;8.60;99.90
6954;DHT22;3516;47.980;8.808;2024-02-26T20:27:49;8.50;99.90
